sensor_id;sensor_type;location;lat;lon;timestamp;pressure;altitude;pressure_sealevel;temperature;humidity
7200;BME280;3641;49.082;8.200;2023-11-19T00:01:42;100295.97;;;7.55;100.00
7200;BME280;3641;49.082;8.200;2023-11-19T00:04:08;100303.78;;;7.58;100.00
7200;BME280;3641;49.082;8.200;2023-11-19T00:06:34;100304.63;;;7.50;100.00
7200;BME280;3641;49.082;8.200;2023-11-19T00:09:01;100307.84;;;7.54;100.00
7200;BME280;3641;49.082;8.200;2023-11-19T00:11:29;100303.44;;;7.61;100.00
7200;BME280;3641;49.082;8.200;2023-11-19T00:13:55;100287.66;;;7.56;100.00
7200;BME280;3641;49.082;8.200;2023-11-19T00:16:22;100301.25;;;7.56;100.00
7200;BME280;3641;49.082;8.200;2023-11-19T00:18:50;100304.81;;;7.57;100.00
7200;BME280;3641;49.082;8.200;2023-11-19T00:21:16;100294.94;;;7.56;100.00
7200;BME280;3641;49.082;8.200;2023-11-19T00:23:42;100292.94;;;7.66;100.00
7200;BME280;3641;49.082;8.200;2023-11-19T00:26:09;100278.81;;;7.62;100.00
7200;BME280;3641;49.082;8.200;2023-11-19T00:28:35;100267.09;;;7.62;100.00
7200;BME280;3641;49.082;8.200;2023-11-19T00:31:04;100255.56;;;7.68;100.00
7200;BME280;3641;49.082;8.200;2023-11-19T00:33:30;100258.28;;;7.76;100.00
7200;BME280;3641;49.082;8.200;2023-11-19T00:35:58;100263.38;;;7.71;100.00
7200;BME280;3641;49.082;8.200;2023-11-19T00:38:24;100267.44;;;7.75;100.00
7200;BME280;3641;49.082;8.200;2023-11-19T00:40:51;100255.75;;;7.75;100.00
7200;BME280;3641;49.082;8.200;2023-11-19T00:43:17;100262.72;;;7.77;100.00
7200;BME280;3641;49.082;8.200;2023-11-19T00:45:47;100259.28;;;7.75;100.00
7200;BME280;3641;49.082;8.200;2023-11-19T00:48:15;100260.84;;;7.78;100.00
7200;BME280;3641;49.082;8.200;2023-11-19T00:50:42;100264.38;;;7.78;100.00
7200;BME280;3641;49.082;8.200;2023-11-19T00:53:11;100262.03;;;7.84;100.00
7200;BME280;3641;49.082;8.200;2023-11-19T00:55:37;100268.81;;;7.88;100.00
7200;BME280;3641;49.082;8.200;2023-11-19T00:58:03;100266.44;;;7.93;100.00
7200;BME280;3641;49.082;8.200;2023-11-19T01:00:30;100238.25;;;7.86;100.00
7200;BME280;3641;49.082;8.200;2023-11-19T01:02:57;100239.78;;;7.96;100.00
7200;BME280;3641;49.082;8.200;2023-11-19T01:05:25;100249.44;;;7.99;100.00
7200;BME280;3641;49.082;8.200;2023-11-19T01:07:52;100254.22;;;7.89;100.00
7200;BME280;3641;49.082;8.200;2023-11-19T01:10:20;100257.28;;;7.86;100.00
7200;BME280;3641;49.082;8.200;2023-11-19T01:12:47;100255.94;;;7.90;100.00
7200;BME280;3641;49.082;8.200;2023-11-19T01:15:13;100255.22;;;7.96;100.00
7200;BME280;3641;49.082;8.200;2023-11-19T01:17:40;100263.53;;;7.94;100.00
7200;BME280;3641;49.082;8.200;2023-11-19T01:20:07;100267.81;;;7.97;100.00
7200;BME280;3641;49.082;8.200;2023-11-19T01:22:33;100250.13;;;7.93;100.00
7200;BME280;3641;49.082;8.200;2023-11-19T01:25:00;100269.16;;;7.93;100.00
7200;BME280;3641;49.082;8.200;2023-11-19T01:27:28;100250.81;;;7.95;100.00
7200;BME280;3641;49.082;8.200;2023-11-19T01:29:54;100261.19;;;7.99;100.00
7200;BME280;3641;49.082;8.200;2023-11-19T01:32:20;100271.72;;;8.03;100.00
7200;BME280;3641;49.082;8.200;2023-11-19T01:34:49;100266.63;;;7.99;100.00
7200;BME280;3641;49.082;8.200;2023-11-19T01:37:15;100265.75;;;7.99;100.00
7200;BME280;3641;49.082;8.200;2023-11-19T01:39:43;100266.78;;;7.98;100.00
7200;BME280;3641;49.082;8.200;2023-11-19T01:42:09;100263.41;;;8.04;100.00
7200;BME280;3641;49.082;8.200;2023-11-19T01:44:38;100247.41;;;8.09;100.00
7200;BME280;3641;49.082;8.200;2023-11-19T01:47:05;100247.41;;;8.17;100.00
7200;BME280;3641;49.082;8.200;2023-11-19T01:49:32;100250.47;;;8.14;100.00
7200;BME280;3641;49.082;8.200;2023-11-19T01:51:59;100235.50;;;8.02;100.00
7200;BME280;3641;49.082;8.200;2023-11-19T01:54:27;100218.34;;;8.10;100.00
7200;BME280;3641;49.082;8.200;2023-11-19T01:56:56;100241.09;;;8.09;100.00
7200;BME280;3641;49.082;8.200;2023-11-19T01:59:23;100227.69;;;8.07;100.00
7200;BME280;3641;49.082;8.200;2023-11-19T02:01:53;100226.84;;;8.07;100.00
7200;BME280;3641;49.082;8.200;2023-11-19T02:04:20;100225.50;;;8.11;100.00
7200;BME280;3641;49.082;8.200;2023-11-19T02:06:48;100228.53;;;8.16;100.00
7200;BME280;3641;49.082;8.200;2023-11-19T02:09:16;100224.63;;;8.10;100.00
7200;BME280;3641;49.082;8.200;2023-11-19T02:11:44;100224.09;;;8.15;100.00
7200;BME280;3641;49.082;8.200;2023-11-19T02:14:14;100223.59;;;8.19;100.00
7200;BME280;3641;49.082;8.200;2023-11-19T02:16:40;100243.66;;;8.18;100.00
7200;BME280;3641;49.082;8.200;2023-11-19T02:19:08;100232.06;;;8.25;100.00
7200;BME280;3641;49.082;8.200;2023-11-19T02:21:36;100226.63;;;8.25;100.00
7200;BME280;3641;49.082;8.200;2023-11-19T02:24:06;100228.69;;;8.23;100.00
7200;BME280;3641;49.082;8.200;2023-11-19T02:26:39;100224.63;;;8.27;100.00
7200;BME280;3641;49.082;8.200;2023-11-19T02:29:07;100218.47;;;8.33;100.00
7200;BME280;3641;49.082;8.200;2023-11-19T02:31:33;100220.47;;;8.39;100.00
7200;BME280;3641;49.082;8.200;2023-11-19T02:34:07;100225.75;;;8.41;100.00
7200;BME280;3641;49.082;8.200;2023-11-19T02:36:38;100215.41;;;8.36;100.00
7200;BME280;3641;49.082;8.200;2023-11-19T02:39:34;100206.41;;;8.44;100.00
7200;BME280;3641;49.082;8.200;2023-11-19T02:42:06;100202.66;;;8.36;100.00
7200;BME280;3641;49.082;8.200;2023-11-19T02:44:46;100192.28;;;8.40;100.00
7200;BME280;3641;49.082;8.200;2023-11-19T02:47:16;100184.28;;;8.39;100.00
7200;BME280;3641;49.082;8.200;2023-11-19T02:49:44;100188.72;;;8.40;100.00
7200;BME280;3641;49.082;8.200;2023-11-19T02:52:11;100183.63;;;8.45;100.00
7200;BME280;3641;49.082;8.200;2023-11-19T02:54:40;100197.03;;;8.46;100.00
7200;BME280;3641;49.082;8.200;2023-11-19T02:57:07;100198.75;;;8.47;100.00
7200;BME280;3641;49.082;8.200;2023-11-19T02:59:40;100195.84;;;8.49;100.00
7200;BME280;3641;49.082;8.200;2023-11-19T03:02:14;100196.22;;;8.46;100.00
7200;BME280;3641;49.082;8.200;2023-11-19T03:04:41;100204.50;;;8.52;100.00
7200;BME280;3641;49.082;8.200;2023-11-19T03:07:10;100203.47;;;8.53;100.00
7200;BME280;3641;49.082;8.200;2023-11-19T03:09:39;100193.59;;;8.61;100.00
7200;BME280;3641;49.082;8.200;2023-11-19T03:12:09;100190.03;;;8.60;100.00
7200;BME280;3641;49.082;8.200;2023-11-19T03:14:40;100168.56;;;8.65;100.00
7200;BME280;3641;49.082;8.200;2023-11-19T03:17:10;100171.13;;;8.67;100.00
7200;BME280;3641;49.082;8.200;2023-11-19T03:19:37;100176.38;;;8.68;100.00
7200;BME280;3641;49.082;8.200;2023-11-19T03:22:06;100176.56;;;8.67;100.00
7200;BME280;3641;49.082;8.200;2023-11-19T03:24:39;100178.06;;;8.69;100.00
7200;BME280;3641;49.082;8.200;2023-11-19T03:27:05;100173.31;;;8.71;100.00
7200;BME280;3641;49.082;8.200;2023-11-19T03:29:34;100163.56;;;8.77;100.00
7200;BME280;3641;49.082;8.200;2023-11-19T03:32:03;100158.13;;;8.77;100.00
7200;BME280;3641;49.082;8.200;2023-11-19T03:34:29;100166.81;;;8.81;100.00
7200;BME280;3641;49.082;8.200;2023-11-19T03:36:57;100162.19;;;8.81;100.00
7200;BME280;3641;49.082;8.200;2023-11-19T03:39:23;100168.31;;;8.83;100.00
7200;BME280;3641;49.082;8.200;2023-11-19T03:41:52;100168.97;;;8.85;100.00
7200;BME280;3641;49.082;8.200;2023-11-19T03:44:19;100176.41;;;8.91;100.00
7200;BME280;3641;49.082;8.200;2023-11-19T03:46:46;100180.38;;;8.89;100.00
7200;BME280;3641;49.082;8.200;2023-11-19T03:49:14;100179.66;;;8.95;100.00
7200;BME280;3641;49.082;8.200;2023-11-19T03:51:41;100179.28;;;8.98;100.00
7200;BME280;3641;49.082;8.200;2023-11-19T03:54:07;100180.13;;;8.99;100.00
7200;BME280;3641;49.082;8.200;2023-11-19T03:56:33;100179.47;;;8.97;100.00
7200;BME280;3641;49.082;8.200;2023-11-19T03:59:00;100177.59;;;8.97;100.00
7200;BME280;3641;49.082;8.200;2023-11-19T04:01:26;100182.88;;;8.99;100.00
7200;BME280;3641;49.082;8.200;2023-11-19T04:03:53;100180.63;;;9.02;100.00
7200;BME280;3641;49.082;8.200;2023-11-19T04:06:22;100184.53;;;9.00;100.00
7200;BME280;3641;49.082;8.200;2023-11-19T04:08:48;100174.28;;;9.10;100.00
7200;BME280;3641;49.082;8.200;2023-11-19T04:11:15;100165.56;;;9.15;100.00
7200;BME280;3641;49.082;8.200;2023-11-19T04:13:41;100164.03;;;9.12;100.00
7200;BME280;3641;49.082;8.200;2023-11-19T04:16:08;100153.16;;;9.12;100.00
7200;BME280;3641;49.082;8.200;2023-11-19T04:18:34;100162.50;;;9.18;100.00
7200;BME280;3641;49.082;8.200;2023-11-19T04:21:01;100155.53;;;9.15;100.00
7200;BME280;3641;49.082;8.200;2023-11-19T04:23:28;100154.97;;;9.20;100.00
7200;BME280;3641;49.082;8.200;2023-11-19T04:25:55;100154.63;;;9.23;100.00
7200;BME280;3641;49.082;8.200;2023-11-19T04:28:21;100152.72;;;9.23;100.00
7200;BME280;3641;49.082;8.200;2023-11-19T04:30:48;100160.72;;;9.25;100.00
7200;BME280;3641;49.082;8.200;2023-11-19T04:33:14;100156.81;;;9.27;100.00
7200;BME280;3641;49.082;8.200;2023-11-19T04:35:41;100161.41;;;9.27;100.00
7200;BME280;3641;49.082;8.200;2023-11-19T04:38:07;100165.63;;;9.30;100.00
7200;BME280;3641;49.082;8.200;2023-11-19T04:40:35;100161.88;;;9.31;100.00
7200;BME280;3641;49.082;8.200;2023-11-19T04:43:01;100151.66;;;9.33;100.00
7200;BME280;3641;49.082;8.200;2023-11-19T04:45:28;100141.78;;;9.32;100.00
7200;BME280;3641;49.082;8.200;2023-11-19T04:47:54;100147.53;;;9.37;100.00
7200;BME280;3641;49.082;8.200;2023-11-19T04:50:20;100165.19;;;9.41;100.00
7200;BME280;3641;49.082;8.200;2023-11-19T04:52:47;100157.38;;;9.38;100.00
7200;BME280;3641;49.082;8.200;2023-11-19T04:55:13;100151.22;;;9.44;100.00
7200;BME280;3641;49.082;8.200;2023-11-19T04:57:42;100167.75;;;9.42;100.00
7200;BME280;3641;49.082;8.200;2023-11-19T05:00:10;100168.44;;;9.44;100.00
7200;BME280;3641;49.082;8.200;2023-11-19T05:02:37;100160.25;;;9.44;100.00
7200;BME280;3641;49.082;8.200;2023-11-19T05:05:04;100154.91;;;9.51;100.00
7200;BME280;3641;49.082;8.200;2023-11-19T05:07:31;100157.47;;;9.53;100.00
7200;BME280;3641;49.082;8.200;2023-11-19T05:09:58;100155.75;;;9.52;100.00
7200;BME280;3641;49.082;8.200;2023-11-19T05:12:24;100158.47;;;9.52;100.00
7200;BME280;3641;49.082;8.200;2023-11-19T05:14:52;100160.00;;;9.54;100.00
7200;BME280;3641;49.082;8.200;2023-11-19T05:17:18;100165.44;;;9.54;100.00
7200;BME280;3641;49.082;8.200;2023-11-19T05:19:45;100158.13;;;9.55;100.00
7200;BME280;3641;49.082;8.200;2023-11-19T05:22:13;100147.41;;;9.53;100.00
7200;BME280;3641;49.082;8.200;2023-11-19T05:24:39;100157.28;;;9.54;100.00
7200;BME280;3641;49.082;8.200;2023-11-19T05:27:06;100158.13;;;9.55;100.00
7200;BME280;3641;49.082;8.200;2023-11-19T05:29:33;100142.59;;;9.55;100.00
7200;BME280;3641;49.082;8.200;2023-11-19T05:32:00;100152.13;;;9.59;100.00
7200;BME280;3641;49.082;8.200;2023-11-19T05:34:27;100135.13;;;9.57;100.00
7200;BME280;3641;49.082;8.200;2023-11-19T05:36:53;100142.06;;;9.60;100.00
7200;BME280;3641;49.082;8.200;2023-11-19T05:39:20;100140.38;;;9.59;100.00
7200;BME280;3641;49.082;8.200;2023-11-19T05:41:47;100148.84;;;9.64;100.00
7200;BME280;3641;49.082;8.200;2023-11-19T05:44:13;100150.50;;;9.65;100.00
7200;BME280;3641;49.082;8.200;2023-11-19T05:46:39;100142.53;;;9.63;100.00
7200;BME280;3641;49.082;8.200;2023-11-19T05:49:09;100138.59;;;9.66;100.00
7200;BME280;3641;49.082;8.200;2023-11-19T05:51:36;100134.94;;;9.74;100.00
7200;BME280;3641;49.082;8.200;2023-11-19T05:54:04;100134.66;;;9.69;100.00
7200;BME280;3641;49.082;8.200;2023-11-19T05:56:32;100134.59;;;9.77;100.00
7200;BME280;3641;49.082;8.200;2023-11-19T05:58:58;100147.34;;;9.76;100.00
7200;BME280;3641;49.082;8.200;2023-11-19T06:01:25;100122.63;;;9.78;100.00
7200;BME280;3641;49.082;8.200;2023-11-19T06:03:52;100115.31;;;9.78;100.00
7200;BME280;3641;49.082;8.200;2023-11-19T06:06:20;100108.81;;;9.79;100.00
7200;BME280;3641;49.082;8.200;2023-11-19T06:08:46;100118.88;;;9.79;100.00
7200;BME280;3641;49.082;8.200;2023-11-19T06:11:13;100114.44;;;9.78;100.00
7200;BME280;3641;49.082;8.200;2023-11-19T06:13:43;100125.53;;;9.76;100.00
7200;BME280;3641;49.082;8.200;2023-11-19T06:16:10;100125.16;;;9.79;100.00
7200;BME280;3641;49.082;8.200;2023-11-19T06:18:37;100145.66;;;9.75;100.00
7200;BME280;3641;49.082;8.200;2023-11-19T06:21:04;100154.78;;;9.82;100.00
7200;BME280;3641;49.082;8.200;2023-11-19T06:23:31;100159.50;;;9.89;100.00
7200;BME280;3641;49.082;8.200;2023-11-19T06:25:58;100157.81;;;9.88;100.00
7200;BME280;3641;49.082;8.200;2023-11-19T06:28:24;100154.91;;;9.89;100.00
7200;BME280;3641;49.082;8.200;2023-11-19T06:30:51;100158.75;;;9.95;100.00
7200;BME280;3641;49.082;8.200;2023-11-19T06:33:17;100146.84;;;9.96;100.00
7200;BME280;3641;49.082;8.200;2023-11-19T06:35:44;100140.81;;;10.00;100.00
7200;BME280;3641;49.082;8.200;2023-11-19T06:38:10;100139.94;;;10.00;100.00
7200;BME280;3641;49.082;8.200;2023-11-19T06:40:38;100136.75;;;9.96;100.00
7200;BME280;3641;49.082;8.200;2023-11-19T06:43:06;100135.56;;;9.99;100.00
7200;BME280;3641;49.082;8.200;2023-11-19T06:45:33;100143.38;;;10.02;100.00
7200;BME280;3641;49.082;8.200;2023-11-19T06:48:02;100152.00;;;10.06;100.00
7200;BME280;3641;49.082;8.200;2023-11-19T06:50:29;100144.19;;;10.03;100.00
7200;BME280;3641;49.082;8.200;2023-11-19T06:52:56;100149.94;;;10.08;100.00
7200;BME280;3641;49.082;8.200;2023-11-19T06:55:22;100148.03;;;10.08;100.00
7200;BME280;3641;49.082;8.200;2023-11-19T06:57:50;100154.75;;;10.06;100.00
7200;BME280;3641;49.082;8.200;2023-11-19T07:00:17;100161.41;;;10.03;100.00
7200;BME280;3641;49.082;8.200;2023-11-19T07:02:43;100157.75;;;10.11;100.00
7200;BME280;3641;49.082;8.200;2023-11-19T07:05:10;100156.72;;;10.12;100.00
7200;BME280;3641;49.082;8.200;2023-11-19T07:07:38;100155.56;;;10.06;100.00
7200;BME280;3641;49.082;8.200;2023-11-19T07:10:06;100157.09;;;10.09;100.00
7200;BME280;3641;49.082;8.200;2023-11-19T07:12:34;100158.75;;;10.10;100.00
7200;BME280;3641;49.082;8.200;2023-11-19T07:15:03;100168.00;;;10.09;100.00
7200;BME280;3641;49.082;8.200;2023-11-19T07:17:30;100167.81;;;10.10;100.00
7200;BME280;3641;49.082;8.200;2023-11-19T07:19:56;100153.91;;;10.05;100.00
7200;BME280;3641;49.082;8.200;2023-11-19T07:22:24;100161.88;;;10.07;100.00
7200;BME280;3641;49.082;8.200;2023-11-19T07:24:51;100164.03;;;10.11;100.00
7200;BME280;3641;49.082;8.200;2023-11-19T07:27:18;100170.72;;;10.09;100.00
7200;BME280;3641;49.082;8.200;2023-11-19T07:29:45;100173.09;;;10.12;100.00
7200;BME280;3641;49.082;8.200;2023-11-19T07:32:12;100173.47;;;10.09;100.00
7200;BME280;3641;49.082;8.200;2023-11-19T07:34:39;100190.28;;;10.12;100.00
7200;BME280;3641;49.082;8.200;2023-11-19T07:37:06;100172.72;;;10.15;100.00
7200;BME280;3641;49.082;8.200;2023-11-19T07:39:32;100188.13;;;10.23;100.00
7200;BME280;3641;49.082;8.200;2023-11-19T07:41:59;100190.38;;;10.19;100.00
7200;BME280;3641;49.082;8.200;2023-11-19T07:44:25;100184.75;;;10.21;100.00
7200;BME280;3641;49.082;8.200;2023-11-19T07:46:52;100186.44;;;10.22;100.00
7200;BME280;3641;49.082;8.200;2023-11-19T07:49:20;100198.09;;;10.30;100.00
7200;BME280;3641;49.082;8.200;2023-11-19T07:51:47;100195.19;;;10.32;100.00
7200;BME280;3641;49.082;8.200;2023-11-19T07:54:13;100197.06;;;10.31;100.00
7200;BME280;3641;49.082;8.200;2023-11-19T07:56:40;100195.31;;;10.39;100.00
7200;BME280;3641;49.082;8.200;2023-11-19T07:59:06;100198.91;;;10.39;100.00
7200;BME280;3641;49.082;8.200;2023-11-19T08:01:32;100203.50;;;10.39;100.00
7200;BME280;3641;49.082;8.200;2023-11-19T08:03:59;100206.44;;;10.37;100.00
7200;BME280;3641;49.082;8.200;2023-11-19T08:06:28;100206.44;;;10.37;100.00
7200;BME280;3641;49.082;8.200;2023-11-19T08:08:54;100207.28;;;10.38;100.00
7200;BME280;3641;49.082;8.200;2023-11-19T08:11:21;100200.75;;;10.39;100.00
7200;BME280;3641;49.082;8.200;2023-11-19T08:13:47;100198.72;;;10.41;100.00
7200;BME280;3641;49.082;8.200;2023-11-19T08:16:14;100213.38;;;10.40;100.00
7200;BME280;3641;49.082;8.200;2023-11-19T08:18:41;100205.84;;;10.42;100.00
7200;BME280;3641;49.082;8.200;2023-11-19T08:21:08;100211.81;;;10.45;100.00
7200;BME280;3641;49.082;8.200;2023-11-19T08:23:36;100213.47;;;10.46;100.00
7200;BME280;3641;49.082;8.200;2023-11-19T08:26:03;100210.88;;;10.53;100.00
7200;BME280;3641;49.082;8.200;2023-11-19T08:28:30;100217.06;;;10.62;100.00
7200;BME280;3641;49.082;8.200;2023-11-19T08:30:59;100210.75;;;10.61;100.00
7200;BME280;3641;49.082;8.200;2023-11-19T08:33:26;100203.03;;;10.65;100.00
7200;BME280;3641;49.082;8.200;2023-11-19T08:35:53;100207.75;;;10.71;100.00
7200;BME280;3641;49.082;8.200;2023-11-19T08:38:19;100199.63;;;10.78;100.00
7200;BME280;3641;49.082;8.200;2023-11-19T08:40:47;100195.94;;;10.85;100.00
7200;BME280;3641;49.082;8.200;2023-11-19T08:43:13;100203.50;;;10.83;100.00
7200;BME280;3641;49.082;8.200;2023-11-19T08:45:39;100201.03;;;10.88;100.00
7200;BME280;3641;49.082;8.200;2023-11-19T08:48:06;100202.72;;;10.89;100.00
7200;BME280;3641;49.082;8.200;2023-11-19T08:50:32;100207.47;;;11.02;100.00
7200;BME280;3641;49.082;8.200;2023-11-19T08:52:59;100211.28;;;11.01;100.00
7200;BME280;3641;49.082;8.200;2023-11-19T08:55:25;100218.50;;;11.09;100.00
7200;BME280;3641;49.082;8.200;2023-11-19T08:57:53;100220.56;;;11.22;100.00
7200;BME280;3641;49.082;8.200;2023-11-19T09:00:20;100228.63;;;11.30;100.00
7200;BME280;3641;49.082;8.200;2023-11-19T09:02:46;100231.09;;;11.25;100.00
7200;BME280;3641;49.082;8.200;2023-11-19T09:05:12;100230.03;;;11.26;100.00
7200;BME280;3641;49.082;8.200;2023-11-19T09:07:39;100238.41;;;11.39;100.00
7200;BME280;3641;49.082;8.200;2023-11-19T09:10:06;100228.19;;;11.48;100.00
7200;BME280;3641;49.082;8.200;2023-11-19T09:12:33;100229.00;;;11.49;100.00
7200;BME280;3641;49.082;8.200;2023-11-19T09:15:01;100234.63;;;11.62;100.00
7200;BME280;3641;49.082;8.200;2023-11-19T09:17:28;100228.19;;;11.70;100.00
7200;BME280;3641;49.082;8.200;2023-11-19T09:19:55;100228.84;;;11.72;100.00
7200;BME280;3641;49.082;8.200;2023-11-19T09:22:21;100228.19;;;11.70;100.00
7200;BME280;3641;49.082;8.200;2023-11-19T09:24:48;100233.47;;;11.71;100.00
7200;BME280;3641;49.082;8.200;2023-11-19T09:27:14;100233.53;;;11.99;100.00
7200;BME280;3641;49.082;8.200;2023-11-19T09:29:41;100240.53;;;12.30;100.00
7200;BME280;3641;49.082;8.200;2023-11-19T09:32:09;100232.66;;;12.56;100.00
7200;BME280;3641;49.082;8.200;2023-11-19T09:34:36;100233.94;;;12.53;100.00
7200;BME280;3641;49.082;8.200;2023-11-19T09:37:02;100232.97;;;13.22;100.00
7200;BME280;3641;49.082;8.200;2023-11-19T09:39:29;100226.50;;;15.36;98.31
7200;BME280;3641;49.082;8.200;2023-11-19T09:41:55;100224.88;;;13.49;100.00
7200;BME280;3641;49.082;8.200;2023-11-19T09:44:23;100238.38;;;14.78;100.00
7200;BME280;3641;49.082;8.200;2023-11-19T09:46:50;100242.59;;;14.80;95.45
7200;BME280;3641;49.082;8.200;2023-11-19T09:49:21;100240.03;;;14.92;97.39
7200;BME280;3641;49.082;8.200;2023-11-19T09:51:49;100242.38;;;14.82;96.56
7200;BME280;3641;49.082;8.200;2023-11-19T09:54:15;100243.47;;;14.81;94.50
7200;BME280;3641;49.082;8.200;2023-11-19T09:56:42;100247.00;;;16.36;89.07
7200;BME280;3641;49.082;8.200;2023-11-19T09:59:09;100236.28;;;17.08;86.52
7200;BME280;3641;49.082;8.200;2023-11-19T10:01:37;100241.81;;;16.46;86.13
7200;BME280;3641;49.082;8.200;2023-11-19T10:04:04;100239.16;;;15.82;91.76
7200;BME280;3641;49.082;8.200;2023-11-19T10:06:33;100223.47;;;15.05;96.08
7200;BME280;3641;49.082;8.200;2023-11-19T10:09:00;100226.06;;;14.94;95.48
7200;BME280;3641;49.082;8.200;2023-11-19T10:11:26;100218.53;;;14.69;95.47
7200;BME280;3641;49.082;8.200;2023-11-19T10:13:53;100214.53;;;14.71;96.22
7200;BME280;3641;49.082;8.200;2023-11-19T10:16:20;100220.94;;;15.04;100.00
7200;BME280;3641;49.082;8.200;2023-11-19T10:18:47;100222.38;;;14.41;97.44
7200;BME280;3641;49.082;8.200;2023-11-19T10:21:17;100226.59;;;14.37;96.62
7200;BME280;3641;49.082;8.200;2023-11-19T10:23:52;100219.22;;;14.24;98.09
7200;BME280;3641;49.082;8.200;2023-11-19T10:26:19;100231.91;;;13.98;98.94
7200;BME280;3641;49.082;8.200;2023-11-19T10:28:46;100217.53;;;13.83;100.00
7200;BME280;3641;49.082;8.200;2023-11-19T10:31:13;100214.78;;;13.70;100.00
7200;BME280;3641;49.082;8.200;2023-11-19T10:33:40;100215.66;;;13.77;100.00
7200;BME280;3641;49.082;8.200;2023-11-19T10:36:07;100215.44;;;13.98;99.40
7200;BME280;3641;49.082;8.200;2023-11-19T10:38:34;100207.38;;;14.10;98.31
7200;BME280;3641;49.082;8.200;2023-11-19T10:41:01;100206.34;;;14.05;99.44
7200;BME280;3641;49.082;8.200;2023-11-19T10:43:28;100205.31;;;14.06;96.60
7200;BME280;3641;49.082;8.200;2023-11-19T10:46:08;100201.28;;;14.02;100.00
7200;BME280;3641;49.082;8.200;2023-11-19T10:48:35;100208.06;;;14.06;95.73
7200;BME280;3641;49.082;8.200;2023-11-19T10:51:05;100208.47;;;13.83;97.71
7200;BME280;3641;49.082;8.200;2023-11-19T10:53:33;100215.84;;;13.82;100.00
7200;BME280;3641;49.082;8.200;2023-11-19T10:56:06;100213.94;;;13.76;99.92
7200;BME280;3641;49.082;8.200;2023-11-19T10:58:35;100216.69;;;13.89;95.31
7200;BME280;3641;49.082;8.200;2023-11-19T11:01:09;100210.56;;;13.87;95.24
7200;BME280;3641;49.082;8.200;2023-11-19T11:03:39;100214.41;;;13.93;93.52
7200;BME280;3641;49.082;8.200;2023-11-19T11:06:06;100215.44;;;14.05;91.14
7200;BME280;3641;49.082;8.200;2023-11-19T11:08:36;100210.56;;;13.94;91.06
7200;BME280;3641;49.082;8.200;2023-11-19T11:11:06;100210.78;;;13.86;94.49
7200;BME280;3641;49.082;8.200;2023-11-19T11:13:33;100206.34;;;13.71;93.79
7200;BME280;3641;49.082;8.200;2023-11-19T11:16:03;100204.44;;;13.65;96.62
7200;BME280;3641;49.082;8.200;2023-11-19T11:18:31;100198.75;;;13.87;95.47
7200;BME280;3641;49.082;8.200;2023-11-19T11:21:00;100202.13;;;13.82;95.41
7200;BME280;3641;49.082;8.200;2023-11-19T11:23:46;100186.09;;;13.86;95.60
7200;BME280;3641;49.082;8.200;2023-11-19T11:26:43;100178.47;;;14.21;90.01
7200;BME280;3641;49.082;8.200;2023-11-19T11:29:24;100184.78;;;14.15;91.36
7200;BME280;3641;49.082;8.200;2023-11-19T11:31:59;100181.22;;;14.14;91.37
7200;BME280;3641;49.082;8.200;2023-11-19T11:34:47;100182.06;;;14.28;90.00
7200;BME280;3641;49.082;8.200;2023-11-19T11:37:18;100179.72;;;14.32;88.58
7200;BME280;3641;49.082;8.200;2023-11-19T11:39:49;100172.75;;;14.36;87.52
7200;BME280;3641;49.082;8.200;2023-11-19T11:42:33;100169.56;;;14.32;87.54
7200;BME280;3641;49.082;8.200;2023-11-19T11:45:01;100166.59;;;14.47;85.77
7200;BME280;3641;49.082;8.200;2023-11-19T11:50:50;100159.25;;;14.21;89.10
7200;BME280;3641;49.082;8.200;2023-11-19T11:53:17;100153.53;;;14.23;89.03
7200;BME280;3641;49.082;8.200;2023-11-19T11:55:55;100151.81;;;14.35;86.83
7200;BME280;3641;49.082;8.200;2023-11-19T11:58:32;100163.84;;;14.34;86.43
7200;BME280;3641;49.082;8.200;2023-11-19T12:01:02;100149.09;;;14.35;83.86
7200;BME280;3641;49.082;8.200;2023-11-19T12:03:31;100142.31;;;14.31;84.39
7200;BME280;3641;49.082;8.200;2023-11-19T12:05:58;100148.25;;;14.21;85.96
7200;BME280;3641;49.082;8.200;2023-11-19T12:08:26;100145.75;;;14.13;85.25
7200;BME280;3641;49.082;8.200;2023-11-19T12:10:53;100140.06;;;13.94;86.26
7200;BME280;3641;49.082;8.200;2023-11-19T12:13:23;100147.25;;;13.89;89.93
7200;BME280;3641;49.082;8.200;2023-11-19T12:16:10;100148.31;;;13.74;91.42
7200;BME280;3641;49.082;8.200;2023-11-19T12:18:39;100138.59;;;13.65;93.63
7200;BME280;3641;49.082;8.200;2023-11-19T12:21:06;100139.22;;;13.67;93.61
7200;BME280;3641;49.082;8.200;2023-11-19T12:23:34;100142.81;;;13.54;91.28
7200;BME280;3641;49.082;8.200;2023-11-19T12:26:01;100153.38;;;13.57;89.54
7200;BME280;3641;49.082;8.200;2023-11-19T12:28:29;100144.31;;;13.50;91.29
7200;BME280;3641;49.082;8.200;2023-11-19T12:31:07;100148.50;;;13.46;93.46
7200;BME280;3641;49.082;8.200;2023-11-19T12:33:37;100141.34;;;13.45;92.65
7200;BME280;3641;49.082;8.200;2023-11-19T12:36:05;100146.38;;;13.35;91.95
7200;BME280;3641;49.082;8.200;2023-11-19T12:38:31;100141.94;;;13.34;92.39
7200;BME280;3641;49.082;8.200;2023-11-19T12:41:04;100146.13;;;13.30;92.42
7200;BME280;3641;49.082;8.200;2023-11-19T12:43:31;100140.66;;;13.30;93.75
7200;BME280;3641;49.082;8.200;2023-11-19T12:45:59;100128.41;;;13.32;92.67
7200;BME280;3641;49.082;8.200;2023-11-19T12:48:25;100133.06;;;13.32;94.34
7200;BME280;3641;49.082;8.200;2023-11-19T12:50:54;100124.03;;;13.44;91.90
7200;BME280;3641;49.082;8.200;2023-11-19T12:53:21;100129.72;;;13.50;92.50
7200;BME280;3641;49.082;8.200;2023-11-19T12:55:48;100123.81;;;13.53;91.77
7200;BME280;3641;49.082;8.200;2023-11-19T12:58:30;100120.47;;;13.44;95.21
7200;BME280;3641;49.082;8.200;2023-11-19T13:01:01;100108.84;;;13.62;91.68
7200;BME280;3641;49.082;8.200;2023-11-19T13:03:31;100106.72;;;13.64;90.18
7200;BME280;3641;49.082;8.200;2023-11-19T13:06:04;100105.72;;;13.45;93.72
7200;BME280;3641;49.082;8.200;2023-11-19T13:08:36;100115.81;;;13.51;89.39
7200;BME280;3641;49.082;8.200;2023-11-19T13:11:03;100104.44;;;13.41;89.61
7200;BME280;3641;49.082;8.200;2023-11-19T13:13:29;100103.81;;;13.39;91.31
7200;BME280;3641;49.082;8.200;2023-11-19T13:16:01;100104.16;;;13.22;92.24